createdAt,value
2022-10-31T00:01:35.640Z,16.80
2022-10-31T00:04:04.842Z,16.26
2022-10-31T00:06:33.404Z,16.49
2022-10-31T00:09:03.849Z,18.73
2022-10-31T00:11:32.328Z,19.53
2022-10-31T00:14:01.123Z,18.46
2022-10-31T00:16:30.358Z,17.45
2022-10-31T00:19:01.365Z,16.73
2022-10-31T00:21:30.717Z,16.18
2022-10-31T00:24:00.263Z,16.29
2022-10-31T00:26:29.483Z,18.47
2022-10-31T00:28:58.769Z,19.49
2022-10-31T00:31:29.603Z,18.42
2022-10-31T00:33:59.104Z,17.31
2022-10-31T00:36:27.992Z,16.51
2022-10-31T00:38:56.488Z,15.94
2022-10-31T00:41:25.877Z,16.30
2022-10-31T00:43:54.151Z,18.55
2022-10-31T00:46:22.325Z,19.30
2022-10-31T00:48:52.940Z,18.21
2022-10-31T00:51:21.134Z,17.16
2022-10-31T00:53:49.611Z,16.45
2022-10-31T00:56:17.686Z,15.95
2022-10-31T00:58:45.757Z,16.27
2022-10-31T01:01:13.859Z,18.56
2022-10-31T01:03:42.204Z,19.46
2022-10-31T01:06:15.089Z,18.34
2022-10-31T01:08:43.569Z,17.25
2022-10-31T01:11:18.300Z,16.50
2022-10-31T01:13:48.005Z,15.96
2022-10-31T01:16:19.358Z,16.24
2022-10-31T01:18:48.261Z,18.56
2022-10-31T01:21:17.956Z,19.26
2022-10-31T01:23:46.735Z,18.13
2022-10-31T01:26:24.850Z,17.08
2022-10-31T01:29:02.650Z,16.31
2022-10-31T01:31:37.479Z,15.75
2022-10-31T01:34:06.534Z,16.15
2022-10-31T01:36:37.106Z,18.57
2022-10-31T01:39:08.284Z,19.22
2022-10-31T01:41:40.008Z,18.06
2022-10-31T01:44:16.591Z,17.03
2022-10-31T01:47:08.973Z,16.32
2022-10-31T01:49:36.988Z,15.74
2022-10-31T01:52:23.900Z,16.01
2022-10-31T01:55:03.040Z,18.55
2022-10-31T01:57:33.669Z,19.20
2022-10-31T02:00:07.269Z,18.01
2022-10-31T02:02:43.054Z,16.90
2022-10-31T02:05:17.440Z,16.17
2022-10-31T02:08:07.113Z,15.64
2022-10-31T02:10:37.748Z,16.24
2022-10-31T02:13:08.581Z,18.65
2022-10-31T02:15:45.448Z,18.94
2022-10-31T02:18:13.939Z,17.70
2022-10-31T02:20:53.275Z,16.68
2022-10-31T02:23:30.459Z,15.90
2022-10-31T02:26:05.187Z,15.36
2022-10-31T02:28:56.575Z,16.59
2022-10-31T02:31:43.314Z,18.98
2022-10-31T02:34:32.689Z,18.24
2022-10-31T02:37:08.541Z,17.01
2022-10-31T02:40:02.315Z,16.24
2022-10-31T02:43:03.457Z,15.60
2022-10-31T02:45:52.119Z,16.01
2022-10-31T02:48:27.558Z,18.63
2022-10-31T02:50:59.622Z,18.69
2022-10-31T02:53:28.104Z,17.47
2022-10-31T02:56:19.019Z,16.54
2022-10-31T02:58:54.763Z,15.79
2022-10-31T03:01:44.437Z,15.29
2022-10-31T03:04:54.394Z,15.87
2022-10-31T03:07:49.295Z,18.70
2022-10-31T03:10:51.485Z,18.12
2022-10-31T03:13:40.121Z,16.79
2022-10-31T03:16:11.568Z,15.94
2022-10-31T03:18:55.205Z,15.40
2022-10-31T03:21:32.493Z,15.66
2022-10-31T03:24:02.817Z,18.05
2022-10-31T03:26:32.219Z,18.68
2022-10-31T03:29:08.176Z,17.52
2022-10-31T03:31:43.926Z,16.48
2022-10-31T03:34:14.053Z,15.76
2022-10-31T03:36:43.552Z,15.26
2022-10-31T03:39:17.049Z,15.48
2022-10-31T03:41:51.268Z,17.82
2022-10-31T03:44:22.922Z,18.54
2022-10-31T03:46:58.391Z,17.36
2022-10-31T03:49:27.162Z,16.42
2022-10-31T03:52:20.441Z,15.76
2022-10-31T03:54:57.806Z,15.19
2022-10-31T03:57:34.478Z,14.80
2022-10-31T04:00:09.857Z,15.56
2022-10-31T04:03:12.302Z,18.09
2022-10-31T04:05:46.821Z,17.87
2022-10-31T04:08:21.548Z,16.72
2022-10-31T04:10:52.589Z,15.87
2022-10-31T04:13:27.419Z,15.28
2022-10-31T04:16:03.774Z,15.44
2022-10-31T04:18:31.752Z,17.61
2022-10-31T04:21:08.837Z,18.37
2022-10-31T04:23:37.765Z,17.24
2022-10-31T04:26:13.065Z,16.24
2022-10-31T04:28:41.037Z,15.56
2022-10-31T04:31:12.079Z,15.04
2022-10-31T04:33:40.457Z,15.19
2022-10-31T04:36:08.938Z,17.30
2022-10-31T04:38:37.316Z,18.16
2022-10-31T04:41:11.532Z,17.08
2022-10-31T04:43:54.200Z,16.02
2022-10-31T04:46:22.625Z,15.34
2022-10-31T04:48:50.699Z,14.84
2022-10-31T04:51:18.973Z,15.03
2022-10-31T04:53:47.043Z,17.39
2022-10-31T04:56:34.064Z,18.26
2022-10-31T04:59:06.140Z,17.09
2022-10-31T05:01:46.711Z,16.06
2022-10-31T05:04:15.067Z,15.40
2022-10-31T05:06:43.549Z,14.91
2022-10-31T05:09:11.623Z,14.50
2022-10-31T05:11:39.748Z,14.85
2022-10-31T05:14:25.377Z,17.54
2022-10-31T05:17:13.621Z,18.00
2022-10-31T05:20:12.411Z,16.58
2022-10-31T05:23:01.065Z,15.55
2022-10-31T05:25:30.043Z,14.94
2022-10-31T05:27:59.040Z,14.53
2022-10-31T05:30:30.913Z,15.86
2022-10-31T05:33:00.117Z,18.15
2022-10-31T05:35:47.128Z,17.69
2022-10-31T05:38:24.311Z,16.48
2022-10-31T05:40:58.833Z,15.62
2022-10-31T05:43:27.110Z,14.98
2022-10-31T05:45:57.127Z,14.50
2022-10-31T05:48:43.628Z,14.94
2022-10-31T05:51:30.132Z,17.56
2022-10-31T05:53:58.408Z,18.24
2022-10-31T05:56:26.994Z,16.99
2022-10-31T05:58:55.165Z,15.88
2022-10-31T06:01:23.285Z,15.11
2022-10-31T06:03:51.553Z,14.56
2022-10-31T06:06:21.837Z,14.80
2022-10-31T06:08:50.319Z,17.19
2022-10-31T06:11:21.666Z,18.31
2022-10-31T06:14:06.431Z,17.11
2022-10-31T06:16:45.252Z,16.02
2022-10-31T06:19:36.312Z,15.24
2022-10-31T06:22:04.439Z,14.74
2022-10-31T06:24:34.557Z,14.94
2022-10-31T06:27:07.029Z,17.37
2022-10-31T06:29:35.100Z,18.50
2022-10-31T06:32:06.551Z,17.42
2022-10-31T06:34:40.559Z,16.36
2022-10-31T06:37:11.090Z,15.65
2022-10-31T06:39:39.982Z,15.12
2022-10-31T06:42:10.518Z,15.29
2022-10-31T06:44:38.786Z,17.64
2022-10-31T06:48:15.435Z,18.32
2022-10-31T06:50:47.225Z,16.96
2022-10-31T06:53:15.707Z,16.15
2022-10-31T06:55:44.089Z,15.60
2022-10-31T06:58:12.778Z,15.18
2022-10-31T07:00:41.505Z,15.43
2022-10-31T07:03:15.056Z,17.79
2022-10-31T07:05:44.271Z,18.84
2022-10-31T07:08:14.578Z,17.74
2022-10-31T07:10:43.900Z,16.66
2022-10-31T07:13:15.329Z,15.94
2022-10-31T07:15:47.803Z,15.42
2022-10-31T07:18:16.593Z,15.74
2022-10-31T07:20:44.662Z,18.08
2022-10-31T07:23:14.201Z,19.33
2022-10-31T07:25:43.775Z,18.37
2022-10-31T07:28:17.889Z,17.22
2022-10-31T07:30:52.289Z,16.47
2022-10-31T07:33:22.160Z,15.91
2022-10-31T07:36:16.816Z,16.65
2022-10-31T07:38:46.231Z,19.06
2022-10-31T07:41:15.422Z,19.53
2022-10-31T07:43:45.377Z,18.42
2022-10-31T07:46:19.776Z,17.42
2022-10-31T07:49:06.256Z,16.72
2022-10-31T07:51:53.065Z,16.21
2022-10-31T07:54:39.673Z,16.73
2022-10-31T07:57:10.714Z,19.16
2022-10-31T07:59:41.039Z,20.15
2022-10-31T08:02:09.927Z,19.11
2022-10-31T08:04:50.491Z,17.89
2022-10-31T08:07:31.189Z,17.08
2022-10-31T08:10:01.694Z,16.56
2022-10-31T08:12:32.528Z,16.84
2022-10-31T08:15:00.700Z,19.14
2022-10-31T08:17:30.820Z,20.17
2022-10-31T08:20:01.345Z,19.17
2022-10-31T08:22:32.795Z,18.17
2022-10-31T08:25:01.382Z,17.48
2022-10-31T08:27:29.552Z,17.04
2022-10-31T08:30:00.097Z,16.71
2022-10-31T08:32:28.154Z,17.05
2022-10-31T08:34:59.915Z,19.43
2022-10-31T08:37:31.055Z,20.27
2022-10-31T08:39:59.126Z,19.30
2022-10-31T08:42:27.197Z,18.40
2022-10-31T08:44:55.166Z,17.79
2022-10-31T08:47:23.703Z,17.40
2022-10-31T08:49:51.924Z,17.12
2022-10-31T08:52:21.556Z,17.44
2022-10-31T08:54:50.018Z,19.80
2022-10-31T08:57:41.227Z,20.62
2022-10-31T09:00:10.110Z,19.67
2022-10-31T09:02:44.024Z,18.76
2022-10-31T09:05:12.200Z,18.13
2022-10-31T09:07:40.269Z,17.68
2022-10-31T09:10:09.154Z,17.35
2022-10-31T09:12:37.752Z,17.71
2022-10-31T09:15:25.171Z,20.42
2022-10-31T09:18:19.253Z,21.05
2022-10-31T09:21:12.511Z,19.90
2022-10-31T09:23:43.041Z,19.10
2022-10-31T09:26:11.214Z,18.63
2022-10-31T09:28:42.768Z,18.30
2022-10-31T09:31:13.601Z,18.03
2022-10-31T09:33:50.897Z,17.80
2022-10-31T09:36:45.768Z,18.55
2022-10-31T09:39:16.421Z,21.07
2022-10-31T09:42:16.955Z,21.83
2022-10-31T09:45:28.957Z,20.62
2022-10-31T09:48:11.261Z,19.63
2022-10-31T09:50:44.349Z,19.16
2022-10-31T09:53:36.455Z,18.81
2022-10-31T09:56:10.599Z,18.58
2022-10-31T09:59:00.994Z,18.38
2022-10-31T10:01:29.305Z,18.15
2022-10-31T10:04:20.842Z,18.61
2022-10-31T10:07:03.915Z,21.48
2022-10-31T10:09:47.529Z,21.68
2022-10-31T10:12:47.060Z,20.64
2022-10-31T10:15:20.969Z,19.94
2022-10-31T10:18:29.487Z,19.52
2022-10-31T10:21:34.627Z,19.18
2022-10-31T10:24:18.573Z,18.97
2022-10-31T10:27:05.280Z,18.82
2022-10-31T10:29:41.952Z,18.70
2022-10-31T10:32:19.446Z,19.31
2022-10-31T10:34:53.333Z,21.76
2022-10-31T10:37:39.653Z,22.15
2022-10-31T10:40:29.027Z,21.18
2022-10-31T10:43:26.890Z,20.43
2022-10-31T10:46:36.641Z,19.94
2022-10-31T10:49:17.493Z,19.60
2022-10-31T10:55:11.921Z,19.21
2022-10-31T10:57:45.932Z,19.05
2022-10-31T11:00:25.607Z,18.94
2022-10-31T11:02:54.466Z,19.49
2022-10-31T11:05:26.018Z,21.84
2022-10-31T11:07:54.395Z,22.69
2022-10-31T11:10:22.673Z,21.86
2022-10-31T11:13:04.964Z,21.10
2022-10-31T11:15:39.098Z,20.52
2022-10-31T11:18:13.587Z,20.13
2022-10-31T11:20:41.684Z,19.84
2022-10-31T11:23:21.015Z,19.62
2022-10-31T11:26:03.427Z,19.40
2022-10-31T11:28:36.224Z,19.22
2022-10-31T11:31:10.220Z,19.07
2022-10-31T11:33:48.218Z,18.94
2022-10-31T11:36:30.529Z,19.52
2022-10-31T11:39:02.388Z,22.07
2022-10-31T11:41:39.679Z,22.70
2022-10-31T11:44:18.603Z,21.75
2022-10-31T11:46:56.506Z,20.94
2022-10-31T11:49:36.354Z,20.42
2022-10-31T11:52:16.405Z,20.05
2022-10-31T11:54:55.810Z,19.76
2022-10-31T11:57:48.419Z,19.55
2022-10-31T12:03:24.673Z,19.18
2022-10-31T12:06:21.913Z,19.05
2022-10-31T12:08:49.997Z,20.82
2022-10-31T12:11:48.686Z,22.63
2022-10-31T12:14:50.652Z,21.99
2022-10-31T12:17:28.044Z,21.05
2022-10-31T12:20:22.228Z,20.53
2022-10-31T12:23:17.741Z,20.13
2022-10-31T12:26:20.628Z,19.85
2022-10-31T12:29:24.028Z,19.63
2022-10-31T12:32:11.067Z,19.44
2022-10-31T12:34:48.862Z,19.29
2022-10-31T12:37:20.395Z,19.17
2022-10-31T12:40:14.732Z,19.64
2022-10-31T12:42:42.753Z,22.27
2022-10-31T12:45:37.755Z,22.76
2022-10-31T12:48:20.882Z,21.75
2022-10-31T12:50:59.602Z,21.04
2022-10-31T12:53:42.726Z,20.59
2022-10-31T12:56:29.536Z,20.26
2022-10-31T12:59:28.020Z,20.01
2022-10-31T13:01:59.045Z,19.78
2022-10-31T13:05:03.181Z,19.62
2022-10-31T13:07:58.828Z,19.46
2022-10-31T13:10:36.082Z,19.30
2022-10-31T13:13:14.425Z,19.19
2022-10-31T13:15:53.422Z,19.75
2022-10-31T13:18:31.427Z,22.27
2022-10-31T13:21:03.390Z,22.69
2022-10-31T13:23:51.764Z,21.80
2022-10-31T13:26:27.181Z,21.02
2022-10-31T13:29:15.833Z,20.57
2022-10-31T13:31:44.519Z,20.22
2022-10-31T13:34:41.589Z,19.99
2022-10-31T13:37:38.109Z,19.76
2022-10-31T13:40:31.167Z,19.57
2022-10-31T13:43:36.102Z,19.42
2022-10-31T13:46:27.110Z,19.26
2022-10-31T13:48:55.183Z,19.13
2022-10-31T13:51:29.807Z,19.56
2022-10-31T13:54:25.425Z,21.97
2022-10-31T13:56:54.296Z,22.83
2022-10-31T13:59:24.573Z,21.94
2022-10-31T14:02:02.362Z,21.21
2022-10-31T14:04:47.351Z,20.69
2022-10-31T14:07:19.062Z,20.34
2022-10-31T14:10:00.650Z,20.09
2022-10-31T14:12:44.903Z,19.86
2022-10-31T14:15:22.701Z,19.66
2022-10-31T14:18:03.952Z,19.49
2022-10-31T14:20:43.523Z,19.34
2022-10-31T14:23:12.823Z,19.85
2022-10-31T14:25:41.926Z,22.19
2022-10-31T14:28:20.842Z,23.10
2022-10-31T14:30:58.021Z,22.15
2022-10-31T14:33:29.273Z,21.29
2022-10-31T14:36:24.481Z,20.75
2022-10-31T14:39:03.305Z,20.30
2022-10-31T14:41:45.814Z,19.99
2022-10-31T14:44:55.972Z,19.72
2022-10-31T14:47:36.947Z,19.43
2022-10-31T14:50:11.366Z,19.20
2022-10-31T14:52:40.565Z,19.64
2022-10-31T14:55:14.137Z,21.91
2022-10-31T14:57:51.145Z,22.77
2022-10-31T15:00:22.188Z,21.80
2022-10-31T15:03:15.561Z,20.94
2022-10-31T15:05:52.297Z,20.27
2022-10-31T15:08:53.373Z,19.84
2022-10-31T15:11:28.687Z,19.46
2022-10-31T15:13:58.814Z,19.18
2022-10-31T15:16:39.703Z,19.44
2022-10-31T15:19:11.462Z,21.90
2022-10-31T15:21:43.321Z,22.52
2022-10-31T15:24:14.669Z,21.48
2022-10-31T15:26:47.455Z,20.59
2022-10-31T15:29:27.201Z,19.95
2022-10-31T15:31:57.520Z,19.45
2022-10-31T15:34:43.717Z,19.09
2022-10-31T15:37:14.859Z,18.75
2022-10-31T15:39:44.884Z,19.11
2022-10-31T15:42:23.707Z,21.35
2022-10-31T15:45:20.188Z,21.98
2022-10-31T15:48:00.892Z,20.78
2022-10-31T15:50:41.661Z,19.89
2022-10-31T15:53:20.582Z,19.29
2022-10-31T15:55:58.614Z,18.84
2022-10-31T15:58:29.414Z,18.46
2022-10-31T16:01:05.362Z,18.80
2022-10-31T16:03:35.140Z,21.09
2022-10-31T16:06:06.358Z,21.58
2022-10-31T16:08:36.865Z,20.54
2022-10-31T16:11:08.029Z,19.65
2022-10-31T16:13:38.965Z,19.01
2022-10-31T16:19:06.952Z,18.07
2022-10-31T16:21:37.904Z,18.36
2022-10-31T16:24:17.333Z,20.66
2022-10-31T16:26:50.623Z,21.30
2022-10-31T16:29:46.083Z,20.21
2022-10-31T16:32:27.523Z,19.17
2022-10-31T16:34:59.868Z,18.52
2022-10-31T16:37:27.965Z,18.02
2022-10-31T16:39:56.038Z,18.13
2022-10-31T16:42:24.133Z,20.31
2022-10-31T16:44:52.486Z,21.20
2022-10-31T16:47:22.223Z,20.22
2022-10-31T16:49:52.728Z,19.24
2022-10-31T16:52:21.002Z,18.56
2022-10-31T16:54:48.973Z,18.01
2022-10-31T16:57:21.653Z,17.61
2022-10-31T16:59:55.047Z,18.66
2022-10-31T17:02:23.431Z,21.02
2022-10-31T17:04:54.005Z,21.18
2022-10-31T17:07:28.073Z,20.01
2022-10-31T17:09:59.667Z,19.08
2022-10-31T17:12:28.512Z,18.47
2022-10-31T17:14:56.994Z,17.99
2022-10-31T17:17:24.971Z,18.79
2022-10-31T17:19:53.033Z,21.03
2022-10-31T17:22:21.106Z,21.39
2022-10-31T17:24:49.176Z,20.27
2022-10-31T17:27:17.458Z,19.29
2022-10-31T17:29:45.420Z,18.55
2022-10-31T17:32:13.492Z,17.98
2022-10-31T17:34:41.769Z,18.90
2022-10-31T17:37:11.815Z,21.04
2022-10-31T17:39:40.881Z,21.07
2022-10-31T17:42:08.952Z,19.92
2022-10-31T17:44:36.923Z,19.00
2022-10-31T17:47:04.991Z,18.34
2022-10-31T17:49:33.064Z,17.84
2022-10-31T17:52:01.269Z,18.78
2022-10-31T17:54:29.308Z,20.84
2022-10-31T17:56:57.379Z,20.69
2022-10-31T17:59:27.808Z,19.55
2022-10-31T18:01:57.610Z,18.64
2022-10-31T18:04:26.380Z,17.94
2022-10-31T18:06:54.685Z,17.99
2022-10-31T18:09:22.755Z,20.14
2022-10-31T18:11:50.826Z,21.01
2022-10-31T18:14:19.002Z,19.98
2022-10-31T18:16:47.176Z,18.98
2022-10-31T18:19:19.239Z,18.27
2022-10-31T18:21:47.311Z,17.74
2022-10-31T18:24:15.383Z,17.35
2022-10-31T18:26:43.454Z,17.98
2022-10-31T18:29:12.036Z,20.29
2022-10-31T18:31:40.108Z,20.67
2022-10-31T18:34:09.543Z,19.55
2022-10-31T18:36:46.363Z,18.58
2022-10-31T18:39:29.883Z,17.86
2022-10-31T18:42:06.287Z,17.32
2022-10-31T18:44:42.658Z,17.58
2022-10-31T18:47:18.075Z,19.91
2022-10-31T18:49:53.950Z,20.41
2022-10-31T18:52:28.966Z,19.29
2022-10-31T18:55:07.957Z,18.31
2022-10-31T18:57:49.168Z,17.61
2022-10-31T19:00:25.843Z,17.10
2022-10-31T19:02:56.969Z,17.35
2022-10-31T19:05:25.083Z,19.59
2022-10-31T19:07:53.052Z,20.37
2022-10-31T19:10:21.021Z,19.34
2022-10-31T19:12:49.094Z,18.36
2022-10-31T19:15:17.163Z,17.65
2022-10-31T19:17:45.236Z,17.13
2022-10-31T19:20:14.268Z,16.74
2022-10-31T19:22:42.406Z,17.07
2022-10-31T19:25:11.233Z,19.43
2022-10-31T19:27:39.468Z,20.22
2022-10-31T19:30:09.103Z,19.15
2022-10-31T19:32:37.554Z,18.12
2022-10-31T19:35:09.589Z,17.41
2022-10-31T19:37:40.354Z,16.90
2022-10-31T19:40:10.190Z,16.51
2022-10-31T19:42:39.442Z,16.87
2022-10-31T19:45:08.769Z,19.29
2022-10-31T19:47:38.661Z,19.93
2022-10-31T19:50:08.689Z,18.85
2022-10-31T19:52:39.193Z,17.84
2022-10-31T19:55:08.116Z,17.17
2022-10-31T20:00:25.458Z,16.28
2022-10-31T20:02:53.836Z,16.57
2022-10-31T20:05:23.779Z,18.89
2022-10-31T20:07:52.027Z,19.76
2022-10-31T20:10:20.201Z,18.75
2022-10-31T20:12:49.091Z,17.76
2022-10-31T20:15:17.369Z,17.10
2022-10-31T20:17:46.053Z,16.62
2022-10-31T20:20:14.226Z,16.24
2022-10-31T20:22:42.401Z,16.37
2022-10-31T20:25:10.472Z,18.62
2022-10-31T20:27:38.442Z,19.71
2022-10-31T20:30:07.567Z,18.75
2022-10-31T20:32:36.428Z,17.72
2022-10-31T20:35:05.200Z,17.03
2022-10-31T20:37:33.293Z,16.54
2022-10-31T20:40:01.360Z,16.17
2022-10-31T20:42:29.327Z,15.85
2022-10-31T20:44:57.296Z,16.29
2022-10-31T20:47:25.975Z,18.68
2022-10-31T20:49:54.671Z,19.43
2022-10-31T20:52:22.739Z,18.34
2022-10-31T20:54:50.813Z,17.35
2022-10-31T20:57:18.779Z,16.68
2022-10-31T20:59:47.362Z,16.19
2022-10-31T21:02:15.768Z,15.80
2022-10-31T21:04:43.923Z,16.07
2022-10-31T21:07:12.395Z,18.39
2022-10-31T21:09:40.569Z,19.23
2022-10-31T21:12:08.746Z,18.20
2022-10-31T21:14:37.434Z,17.23
2022-10-31T21:17:07.052Z,16.54
2022-10-31T21:19:36.439Z,16.04
2022-10-31T21:22:04.411Z,15.65
2022-10-31T21:24:32.480Z,15.84
2022-10-31T21:27:02.097Z,18.13
2022-10-31T21:29:31.566Z,19.22
2022-10-31T21:31:59.663Z,18.18
2022-10-31T21:34:27.736Z,17.16
2022-10-31T21:36:55.914Z,16.43
2022-10-31T21:39:24.293Z,15.90
2022-10-31T21:41:52.359Z,15.49
2022-10-31T21:44:21.047Z,15.78
2022-10-31T21:46:49.936Z,18.22
2022-10-31T21:49:18.138Z,18.90
2022-10-31T21:51:47.716Z,17.77
2022-10-31T21:54:27.973Z,16.77
2022-10-31T21:56:58.296Z,16.04
2022-10-31T21:59:26.681Z,15.56
2022-10-31T22:01:57.819Z,15.19
2022-10-31T22:04:26.199Z,15.67
2022-10-31T22:06:54.269Z,17.93
2022-10-31T22:09:23.672Z,18.66
2022-10-31T22:11:51.845Z,17.60
2022-10-31T22:14:20.019Z,16.64
2022-10-31T22:16:48.091Z,15.96
2022-10-31T22:19:16.369Z,15.46
2022-10-31T22:21:47.376Z,15.09
2022-10-31T22:24:16.916Z,15.44
2022-10-31T22:26:45.394Z,17.65
2022-10-31T22:29:17.451Z,18.64
2022-10-31T22:31:50.625Z,17.62
2022-10-31T22:34:22.000Z,16.59
2022-10-31T22:36:50.282Z,15.88
2022-10-31T22:39:18.347Z,15.38
2022-10-31T22:41:46.316Z,14.99
2022-10-31T22:44:14.388Z,15.28
2022-10-31T22:46:42.383Z,17.60
2022-10-31T22:49:16.881Z,18.67
2022-10-31T22:51:45.376Z,17.60
2022-10-31T22:54:16.508Z,16.60
2022-10-31T22:56:45.489Z,15.87
2022-10-31T22:59:15.617Z,15.34
2022-10-31T23:01:45.995Z,14.93
2022-10-31T23:04:16.441Z,15.24
2022-10-31T23:06:45.055Z,17.37
2022-10-31T23:09:16.309Z,18.28
2022-10-31T23:11:45.528Z,17.31
2022-10-31T23:14:21.132Z,16.37
2022-10-31T23:16:57.216Z,15.69
2022-10-31T23:19:30.396Z,15.19
2022-10-31T23:22:02.305Z,14.81
2022-10-31T23:24:36.879Z,15.15
2022-10-31T23:27:10.128Z,17.59
2022-10-31T23:29:50.227Z,18.51
2022-10-31T23:32:35.431Z,17.27
2022-10-31T23:35:06.722Z,16.19
2022-10-31T23:37:37.275Z,15.50
2022-10-31T23:40:08.724Z,15.01
2022-10-31T23:42:36.695Z,15.16
2022-10-31T23:45:05.375Z,17.29
2022-10-31T23:47:33.452Z,18.23
2022-10-31T23:50:01.423Z,17.24
2022-10-31T23:52:29.698Z,16.27
2022-10-31T23:54:59.919Z,15.56
2022-10-31T23:57:27.996Z,15.04
2022-10-31T23:59:55.960Z,14.65
